sensor_id;sensor_type;location;lat;lon;timestamp;pressure;altitude;pressure_sealevel;temperature;humidity
51617;BME280;37697;52.588;13.394;2023-05-03T00:05:02;102175.77;;;7.85;57.19
51617;BME280;37697;52.588;13.394;2023-05-03T00:10:11;102179.93;;;7.77;56.96
51617;BME280;37697;52.588;13.394;2023-05-03T00:15:17;102186.46;;;7.71;57.03
51617;BME280;37697;52.588;13.394;2023-05-03T00:20:23;102188.62;;;7.62;56.93
51617;BME280;37697;52.588;13.394;2023-05-03T00:25:29;102185.99;;;7.53;57.08
51617;BME280;37697;52.588;13.394;2023-05-03T00:30:34;102184.13;;;7.43;57.06
51617;BME280;37697;52.588;13.394;2023-05-03T00:35:40;102184.33;;;7.33;57.22
51617;BME280;37697;52.588;13.394;2023-05-03T00:40:49;102185.03;;;7.24;57.38
51617;BME280;37697;52.588;13.394;2023-05-03T00:45:57;102184.23;;;7.13;57.33
51617;BME280;37697;52.588;13.394;2023-05-03T00:51:20;102187.23;;;7.07;57.52
51617;BME280;37697;52.588;13.394;2023-05-03T00:56:26;102187.34;;;7.03;57.72
51617;BME280;37697;52.588;13.394;2023-05-03T01:01:35;102181.02;;;7.00;57.83
51617;BME280;37697;52.588;13.394;2023-05-03T01:06:47;102185.94;;;6.92;57.96
51617;BME280;37697;52.588;13.394;2023-05-03T01:12:03;102189.96;;;6.84;58.17
51617;BME280;37697;52.588;13.394;2023-05-03T01:17:14;102185.39;;;6.78;58.22
51617;BME280;37697;52.588;13.394;2023-05-03T01:27:43;102188.95;;;6.62;58.75
51617;BME280;37697;52.588;13.394;2023-05-03T01:32:55;102194.77;;;6.54;58.74
51617;BME280;37697;52.588;13.394;2023-05-03T01:38:02;102194.73;;;6.43;59.11
51617;BME280;37697;52.588;13.394;2023-05-03T01:43:10;102195.92;;;6.37;59.51
51617;BME280;37697;52.588;13.394;2023-05-03T01:48:18;102193.31;;;6.31;59.70
51617;BME280;37697;52.588;13.394;2023-05-03T01:53:23;102192.80;;;6.28;59.97
51617;BME280;37697;52.588;13.394;2023-05-03T01:58:29;102202.21;;;6.25;59.79
51617;BME280;37697;52.588;13.394;2023-05-03T02:03:34;102195.89;;;6.21;59.98
51617;BME280;37697;52.588;13.394;2023-05-03T02:08:39;102198.31;;;6.15;60.09
51617;BME280;37697;52.588;13.394;2023-05-03T02:13:47;102195.17;;;6.07;60.28
51617;BME280;37697;52.588;13.394;2023-05-03T02:18:53;102200.40;;;5.99;60.44
51617;BME280;37697;52.588;13.394;2023-05-03T02:23:58;102202.23;;;5.88;60.46
51617;BME280;37697;52.588;13.394;2023-05-03T02:29:04;102208.48;;;5.79;60.55
51617;BME280;37697;52.588;13.394;2023-05-03T02:34:09;102213.48;;;5.72;60.56
51617;BME280;37697;52.588;13.394;2023-05-03T02:39:15;102222.52;;;5.64;61.02
51617;BME280;37697;52.588;13.394;2023-05-03T02:44:21;102227.23;;;5.58;61.07
51617;BME280;37697;52.588;13.394;2023-05-03T02:49:26;102228.38;;;5.51;61.21
51617;BME280;37697;52.588;13.394;2023-05-03T02:54:32;102229.45;;;5.44;61.51
51617;BME280;37697;52.588;13.394;2023-05-03T02:59:37;102232.95;;;5.36;61.86
51617;BME280;37697;52.588;13.394;2023-05-03T03:04:43;102235.54;;;5.27;62.09
51617;BME280;37697;52.588;13.394;2023-05-03T03:09:48;102238.14;;;5.18;62.03
51617;BME280;37697;52.588;13.394;2023-05-03T03:14:53;102238.13;;;5.12;62.34
51617;BME280;37697;52.588;13.394;2023-05-03T03:20:00;102243.45;;;5.03;62.37
51617;BME280;37697;52.588;13.394;2023-05-03T03:25:10;102244.16;;;4.94;62.52
51617;BME280;37697;52.588;13.394;2023-05-03T03:30:16;102247.38;;;4.84;62.35
51617;BME280;37697;52.588;13.394;2023-05-03T03:35:21;102250.95;;;4.76;62.82
51617;BME280;37697;52.588;13.394;2023-05-03T03:40:27;102252.81;;;4.70;63.16
51617;BME280;37697;52.588;13.394;2023-05-03T03:45:32;102253.73;;;4.66;63.11
51617;BME280;37697;52.588;13.394;2023-05-03T03:50:37;102259.25;;;4.59;63.22
51617;BME280;37697;52.588;13.394;2023-05-03T03:55:43;102262.28;;;4.53;63.33
51617;BME280;37697;52.588;13.394;2023-05-03T04:00:48;102271.66;;;4.51;63.78
51617;BME280;37697;52.588;13.394;2023-05-03T04:05:54;102275.89;;;4.49;63.77
51617;BME280;37697;52.588;13.394;2023-05-03T04:11:00;102281.08;;;4.47;63.92
51617;BME280;37697;52.588;13.394;2023-05-03T04:16:07;102281.73;;;4.45;63.80
51617;BME280;37697;52.588;13.394;2023-05-03T04:21:12;102290.00;;;4.44;64.10
51617;BME280;37697;52.588;13.394;2023-05-03T04:26:17;102294.49;;;4.47;64.53
51617;BME280;37697;52.588;13.394;2023-05-03T04:31:36;102305.31;;;4.49;64.36
51617;BME280;37697;52.588;13.394;2023-05-03T04:36:41;102308.80;;;4.49;64.47
51617;BME280;37697;52.588;13.394;2023-05-03T04:41:47;102314.27;;;4.51;64.87
51617;BME280;37697;52.588;13.394;2023-05-03T04:46:52;102317.04;;;4.91;64.47
51617;BME280;37697;52.588;13.394;2023-05-03T04:51:57;102315.23;;;5.54;63.20
51617;BME280;37697;52.588;13.394;2023-05-03T04:57:03;102325.23;;;6.15;62.55
51617;BME280;37697;52.588;13.394;2023-05-03T05:02:08;102323.31;;;6.43;62.40
51617;BME280;37697;52.588;13.394;2023-05-03T05:07:14;102326.09;;;6.83;61.43
51617;BME280;37697;52.588;13.394;2023-05-03T05:12:19;102324.25;;;7.25;61.03
51617;BME280;37697;52.588;13.394;2023-05-03T05:17:25;102326.31;;;7.67;60.44
51617;BME280;37697;52.588;13.394;2023-05-03T05:22:31;102323.88;;;8.09;60.44
51617;BME280;37697;52.588;13.394;2023-05-03T05:27:37;102326.14;;;8.36;60.49
51617;BME280;37697;52.588;13.394;2023-05-03T05:32:42;102329.48;;;8.58;59.16
51617;BME280;37697;52.588;13.394;2023-05-03T05:37:47;102337.04;;;8.67;58.63
51617;BME280;37697;52.588;13.394;2023-05-03T05:42:53;102344.30;;;8.82;58.49
51617;BME280;37697;52.588;13.394;2023-05-03T05:47:58;102345.65;;;9.08;57.64
51617;BME280;37697;52.588;13.394;2023-05-03T05:53:04;102344.67;;;9.67;57.54
51617;BME280;37697;52.588;13.394;2023-05-03T05:58:09;102352.67;;;9.84;56.41
51617;BME280;37697;52.588;13.394;2023-05-03T06:03:17;102356.33;;;9.72;55.97
51617;BME280;37697;52.588;13.394;2023-05-03T06:08:22;102358.30;;;9.81;55.95
51617;BME280;37697;52.588;13.394;2023-05-03T06:13:28;102359.85;;;9.88;55.49
51617;BME280;37697;52.588;13.394;2023-05-03T06:18:33;102365.79;;;10.03;56.05
51617;BME280;37697;52.588;13.394;2023-05-03T06:23:39;102370.31;;;10.14;55.62
51617;BME280;37697;52.588;13.394;2023-05-03T06:28:44;102367.19;;;10.16;55.37
51617;BME280;37697;52.588;13.394;2023-05-03T06:33:51;102371.05;;;10.28;55.02
51617;BME280;37697;52.588;13.394;2023-05-03T06:38:56;102370.17;;;10.38;54.34
51617;BME280;37697;52.588;13.394;2023-05-03T06:44:02;102370.55;;;10.51;54.20
51617;BME280;37697;52.588;13.394;2023-05-03T06:49:08;102371.35;;;10.56;54.13
51617;BME280;37697;52.588;13.394;2023-05-03T06:54:14;102364.77;;;10.66;53.91
51617;BME280;37697;52.588;13.394;2023-05-03T06:59:19;102366.98;;;10.85;53.14
51617;BME280;37697;52.588;13.394;2023-05-03T07:04:25;102373.64;;;10.92;52.34
51617;BME280;37697;52.588;13.394;2023-05-03T07:09:30;102372.37;;;10.98;52.47
51617;BME280;37697;52.588;13.394;2023-05-03T07:14:47;102367.54;;;11.22;51.56
51617;BME280;37697;52.588;13.394;2023-05-03T07:19:53;102369.49;;;11.29;50.89
51617;BME280;37697;52.588;13.394;2023-05-03T07:24:58;102367.66;;;11.49;50.97
51617;BME280;37697;52.588;13.394;2023-05-03T07:30:05;102368.28;;;11.69;50.84
51617;BME280;37697;52.588;13.394;2023-05-03T07:35:13;102370.44;;;11.69;50.14
51617;BME280;37697;52.588;13.394;2023-05-03T07:40:19;102370.92;;;11.68;50.06
51617;BME280;37697;52.588;13.394;2023-05-03T07:45:24;102368.65;;;11.81;49.65
51617;BME280;37697;52.588;13.394;2023-05-03T07:50:31;102367.17;;;12.01;49.54
51617;BME280;37697;52.588;13.394;2023-05-03T07:55:36;102364.31;;;12.14;49.04
51617;BME280;37697;52.588;13.394;2023-05-03T08:00:42;102367.05;;;12.23;49.08
51617;BME280;37697;52.588;13.394;2023-05-03T08:05:48;102362.90;;;12.28;48.25
51617;BME280;37697;52.588;13.394;2023-05-03T08:10:54;102368.15;;;12.22;48.52
51617;BME280;37697;52.588;13.394;2023-05-03T08:16:00;102358.42;;;12.52;47.96
51617;BME280;37697;52.588;13.394;2023-05-03T08:21:07;102357.38;;;12.93;47.74
51617;BME280;37697;52.588;13.394;2023-05-03T08:26:14;102352.91;;;13.10;47.60
51617;BME280;37697;52.588;13.394;2023-05-03T08:31:19;102354.63;;;13.24;47.51
51617;BME280;37697;52.588;13.394;2023-05-03T08:36:25;102354.00;;;13.30;46.68
51617;BME280;37697;52.588;13.394;2023-05-03T08:41:32;102346.48;;;13.66;47.11
51617;BME280;37697;52.588;13.394;2023-05-03T08:46:38;102351.73;;;13.70;45.63
51617;BME280;37697;52.588;13.394;2023-05-03T08:51:44;102349.75;;;13.87;46.09
51617;BME280;37697;52.588;13.394;2023-05-03T08:56:54;102354.58;;;14.04;45.09
51617;BME280;37697;52.588;13.394;2023-05-03T09:01:59;102359.15;;;14.15;44.96
51617;BME280;37697;52.588;13.394;2023-05-03T09:07:12;102356.08;;;14.33;44.43
51617;BME280;37697;52.588;13.394;2023-05-03T09:12:34;102359.05;;;14.51;44.49
51617;BME280;37697;52.588;13.394;2023-05-03T09:17:40;102363.35;;;14.68;43.97
51617;BME280;37697;52.588;13.394;2023-05-03T09:22:51;102361.24;;;14.78;44.01
51617;BME280;37697;52.588;13.394;2023-05-03T09:28:01;102362.77;;;14.82;43.09
51617;BME280;37697;52.588;13.394;2023-05-03T09:33:07;102362.80;;;14.73;42.90
51617;BME280;37697;52.588;13.394;2023-05-03T09:38:26;102362.92;;;14.58;43.31
51617;BME280;37697;52.588;13.394;2023-05-03T09:43:32;102358.98;;;14.83;42.81
51617;BME280;37697;52.588;13.394;2023-05-03T09:48:38;102359.95;;;14.80;42.21
51617;BME280;37697;52.588;13.394;2023-05-03T09:53:44;102357.86;;;14.90;42.38
51617;BME280;37697;52.588;13.394;2023-05-03T09:58:49;102355.15;;;14.76;42.14
51617;BME280;37697;52.588;13.394;2023-05-03T10:03:59;102355.58;;;14.18;42.25
51617;BME280;37697;52.588;13.394;2023-05-03T10:09:12;102354.77;;;14.30;42.14
51617;BME280;37697;52.588;13.394;2023-05-03T10:14:19;102350.67;;;14.51;41.43
51617;BME280;37697;52.588;13.394;2023-05-03T10:19:28;102349.64;;;14.74;41.51
51617;BME280;37697;52.588;13.394;2023-05-03T10:24:36;102349.16;;;14.94;41.84
51617;BME280;37697;52.588;13.394;2023-05-03T10:29:49;102346.09;;;14.89;41.28
51617;BME280;37697;52.588;13.394;2023-05-03T10:34:57;102345.88;;;15.04;41.62
51617;BME280;37697;52.588;13.394;2023-05-03T10:40:09;102342.02;;;15.40;41.20
51617;BME280;37697;52.588;13.394;2023-05-03T10:45:23;102336.01;;;15.62;40.91
51617;BME280;37697;52.588;13.394;2023-05-03T10:50:29;102335.22;;;15.66;40.57
51617;BME280;37697;52.588;13.394;2023-05-03T10:55:34;102328.21;;;15.77;40.30
51617;BME280;37697;52.588;13.394;2023-05-03T11:00:42;102328.02;;;15.93;40.67
51617;BME280;37697;52.588;13.394;2023-05-03T11:05:49;102323.44;;;16.10;40.50
51617;BME280;37697;52.588;13.394;2023-05-03T11:10:59;102319.37;;;16.44;40.53
51617;BME280;37697;52.588;13.394;2023-05-03T11:16:07;102321.54;;;16.24;39.54
51617;BME280;37697;52.588;13.394;2023-05-03T11:21:13;102314.95;;;16.44;40.49
51617;BME280;37697;52.588;13.394;2023-05-03T11:26:18;102318.36;;;16.66;39.89
51617;BME280;37697;52.588;13.394;2023-05-03T11:31:27;102310.85;;;16.50;39.90
51617;BME280;37697;52.588;13.394;2023-05-03T11:36:33;102307.82;;;16.67;39.82
51617;BME280;37697;52.588;13.394;2023-05-03T11:41:39;102307.18;;;16.90;39.79
51617;BME280;37697;52.588;13.394;2023-05-03T11:46:46;102304.42;;;16.85;38.79
51617;BME280;37697;52.588;13.394;2023-05-03T11:51:54;102294.44;;;16.63;38.34
51617;BME280;37697;52.588;13.394;2023-05-03T11:57:09;102297.54;;;16.64;37.33
51617;BME280;37697;52.588;13.394;2023-05-03T12:02:16;102293.10;;;16.78;37.59
51617;BME280;37697;52.588;13.394;2023-05-03T12:07:22;102290.48;;;16.84;37.26
51617;BME280;37697;52.588;13.394;2023-05-03T12:12:31;102289.79;;;17.05;38.28
51617;BME280;37697;52.588;13.394;2023-05-03T12:17:40;102288.80;;;17.05;37.21
51617;BME280;37697;52.588;13.394;2023-05-03T12:22:50;102283.20;;;17.04;37.35
51617;BME280;37697;52.588;13.394;2023-05-03T12:28:02;102282.92;;;17.12;37.48
51617;BME280;37697;52.588;13.394;2023-05-03T12:33:11;102277.86;;;17.15;37.75
51617;BME280;37697;52.588;13.394;2023-05-03T12:38:20;102272.34;;;17.30;37.42
51617;BME280;37697;52.588;13.394;2023-05-03T12:43:28;102269.06;;;17.30;36.80
51617;BME280;37697;52.588;13.394;2023-05-03T12:48:34;102268.48;;;17.38;36.52
51617;BME280;37697;52.588;13.394;2023-05-03T12:53:39;102270.16;;;17.18;36.75
51617;BME280;37697;52.588;13.394;2023-05-03T12:58:45;102264.64;;;17.43;36.93
51617;BME280;37697;52.588;13.394;2023-05-03T13:03:57;102258.96;;;17.31;36.64
51617;BME280;37697;52.588;13.394;2023-05-03T13:09:22;102254.69;;;17.48;37.15
51617;BME280;37697;52.588;13.394;2023-05-03T13:14:42;102251.53;;;17.51;36.69
51617;BME280;37697;52.588;13.394;2023-05-03T13:19:49;102249.02;;;17.42;37.39
51617;BME280;37697;52.588;13.394;2023-05-03T13:24:55;102239.44;;;17.66;37.57
51617;BME280;37697;52.588;13.394;2023-05-03T13:30:01;102235.27;;;17.53;36.65
51617;BME280;37697;52.588;13.394;2023-05-03T13:35:10;102229.27;;;17.25;36.30
51617;BME280;37697;52.588;13.394;2023-05-03T13:40:15;102227.65;;;17.22;36.79
51617;BME280;37697;52.588;13.394;2023-05-03T13:45:20;102221.71;;;17.01;36.28
51617;BME280;37697;52.588;13.394;2023-05-03T13:50:29;102215.10;;;16.95;36.63
51617;BME280;37697;52.588;13.394;2023-05-03T13:55:37;102207.39;;;17.04;37.31
51617;BME280;37697;52.588;13.394;2023-05-03T14:00:42;102199.45;;;17.13;37.51
51617;BME280;37697;52.588;13.394;2023-05-03T14:05:47;102200.75;;;16.89;37.56
51617;BME280;37697;52.588;13.394;2023-05-03T14:10:53;102200.42;;;16.74;37.51
51617;BME280;37697;52.588;13.394;2023-05-03T14:15:58;102196.40;;;16.73;37.22
51617;BME280;37697;52.588;13.394;2023-05-03T14:21:06;102187.55;;;16.66;37.14
51617;BME280;37697;52.588;13.394;2023-05-03T14:26:12;102184.52;;;16.73;37.58
51617;BME280;37697;52.588;13.394;2023-05-03T14:31:18;102189.95;;;16.70;37.96
51617;BME280;37697;52.588;13.394;2023-05-03T14:36:24;102177.36;;;16.76;37.76
51617;BME280;37697;52.588;13.394;2023-05-03T14:41:31;102174.27;;;16.64;37.49
51617;BME280;37697;52.588;13.394;2023-05-03T14:46:38;102176.78;;;16.52;37.72
51617;BME280;37697;52.588;13.394;2023-05-03T14:51:44;102172.95;;;16.43;37.94
51617;BME280;37697;52.588;13.394;2023-05-03T14:56:49;102172.95;;;16.46;37.50
51617;BME280;37697;52.588;13.394;2023-05-03T15:01:55;102169.75;;;16.46;37.56
51617;BME280;37697;52.588;13.394;2023-05-03T15:07:02;102170.61;;;16.49;38.15
51617;BME280;37697;52.588;13.394;2023-05-03T15:12:08;102171.80;;;16.48;38.11
51617;BME280;37697;52.588;13.394;2023-05-03T15:17:13;102177.55;;;16.38;37.83
51617;BME280;37697;52.588;13.394;2023-05-03T15:22:19;102173.88;;;16.33;38.25
51617;BME280;37697;52.588;13.394;2023-05-03T15:27:25;102163.48;;;16.39;38.29
51617;BME280;37697;52.588;13.394;2023-05-03T15:32:30;102165.58;;;16.42;38.41
51617;BME280;37697;52.588;13.394;2023-05-03T15:37:36;102164.85;;;16.34;37.97
51617;BME280;37697;52.588;13.394;2023-05-03T15:42:42;102162.11;;;16.32;37.91
51617;BME280;37697;52.588;13.394;2023-05-03T15:47:48;102157.11;;;16.23;38.04
51617;BME280;37697;52.588;13.394;2023-05-03T15:52:53;102154.33;;;16.15;37.82
51617;BME280;37697;52.588;13.394;2023-05-03T15:58:01;102154.79;;;16.11;38.32
51617;BME280;37697;52.588;13.394;2023-05-03T16:03:07;102155.13;;;16.14;38.23
51617;BME280;37697;52.588;13.394;2023-05-03T16:08:13;102153.62;;;16.14;38.34
51617;BME280;37697;52.588;13.394;2023-05-03T16:13:18;102149.85;;;16.16;38.20
51617;BME280;37697;52.588;13.394;2023-05-03T16:18:24;102143.83;;;16.08;38.23
51617;BME280;37697;52.588;13.394;2023-05-03T16:23:31;102142.52;;;16.05;38.49
51617;BME280;37697;52.588;13.394;2023-05-03T16:28:36;102142.25;;;16.04;38.57
51617;BME280;37697;52.588;13.394;2023-05-03T16:33:42;102137.91;;;15.88;38.35
51617;BME280;37697;52.588;13.394;2023-05-03T16:38:47;102133.83;;;15.84;38.60
51617;BME280;37697;52.588;13.394;2023-05-03T16:43:53;102135.76;;;15.82;38.64
51617;BME280;37697;52.588;13.394;2023-05-03T16:48:58;102135.52;;;15.71;38.65
51617;BME280;37697;52.588;13.394;2023-05-03T16:54:04;102135.91;;;15.65;38.88
51617;BME280;37697;52.588;13.394;2023-05-03T16:59:10;102129.13;;;15.52;39.23
51617;BME280;37697;52.588;13.394;2023-05-03T17:04:16;102133.01;;;15.39;39.20
51617;BME280;37697;52.588;13.394;2023-05-03T17:09:21;102130.97;;;15.20;39.54
51617;BME280;37697;52.588;13.394;2023-05-03T17:14:26;102131.71;;;15.08;39.91
51617;BME280;37697;52.588;13.394;2023-05-03T17:19:32;102132.80;;;14.95;39.99
51617;BME280;37697;52.588;13.394;2023-05-03T17:24:37;102132.81;;;14.80;40.14
51617;BME280;37697;52.588;13.394;2023-05-03T17:29:43;102136.05;;;14.62;40.27
51617;BME280;37697;52.588;13.394;2023-05-03T17:34:48;102137.09;;;14.47;40.91
51617;BME280;37697;52.588;13.394;2023-05-03T17:39:53;102135.51;;;14.31;41.22
51617;BME280;37697;52.588;13.394;2023-05-03T17:44:59;102134.87;;;14.14;41.53
51617;BME280;37697;52.588;13.394;2023-05-03T17:50:07;102137.39;;;14.01;41.83
51617;BME280;37697;52.588;13.394;2023-05-03T17:55:14;102133.75;;;13.88;42.36
51617;BME280;37697;52.588;13.394;2023-05-03T18:00:22;102136.84;;;13.78;42.79
51617;BME280;37697;52.588;13.394;2023-05-03T18:05:29;102130.86;;;13.66;42.98
51617;BME280;37697;52.588;13.394;2023-05-03T18:10:40;102137.12;;;13.51;43.38
51617;BME280;37697;52.588;13.394;2023-05-03T18:15:47;102142.35;;;13.33;43.86
51617;BME280;37697;52.588;13.394;2023-05-03T18:20:58;102146.77;;;13.22;44.48
51617;BME280;37697;52.588;13.394;2023-05-03T18:26:04;102149.41;;;13.06;44.93
51617;BME280;37697;52.588;13.394;2023-05-03T18:31:11;102150.04;;;12.83;45.72
51617;BME280;37697;52.588;13.394;2023-05-03T18:36:16;102144.57;;;12.60;46.35
51617;BME280;37697;52.588;13.394;2023-05-03T18:41:22;102146.34;;;12.43;46.97
51617;BME280;37697;52.588;13.394;2023-05-03T18:46:28;102148.98;;;12.26;47.40
51617;BME280;37697;52.588;13.394;2023-05-03T18:51:34;102151.25;;;12.08;47.93
51617;BME280;37697;52.588;13.394;2023-05-03T18:56:39;102161.04;;;11.92;48.21
51617;BME280;37697;52.588;13.394;2023-05-03T19:01:45;102164.95;;;11.75;48.27
51617;BME280;37697;52.588;13.394;2023-05-03T19:06:50;102164.84;;;11.58;48.57
51617;BME280;37697;52.588;13.394;2023-05-03T19:11:55;102161.95;;;11.39;48.92
51617;BME280;37697;52.588;13.394;2023-05-03T19:17:01;102172.08;;;11.19;49.10
51617;BME280;37697;52.588;13.394;2023-05-03T19:22:06;102170.61;;;11.03;49.48
51617;BME280;37697;52.588;13.394;2023-05-03T19:27:12;102180.63;;;10.88;49.78
51617;BME280;37697;52.588;13.394;2023-05-03T19:32:17;102178.22;;;10.73;50.06
51617;BME280;37697;52.588;13.394;2023-05-03T19:37:23;102179.19;;;10.57;50.34
51617;BME280;37697;52.588;13.394;2023-05-03T19:42:28;102179.88;;;10.41;50.80
51617;BME280;37697;52.588;13.394;2023-05-03T19:47:34;102177.23;;;10.25;51.25
51617;BME280;37697;52.588;13.394;2023-05-03T19:52:39;102174.59;;;10.10;51.69
51617;BME280;37697;52.588;13.394;2023-05-03T19:57:46;102176.80;;;9.95;51.91
51617;BME280;37697;52.588;13.394;2023-05-03T20:02:51;102180.70;;;9.80;52.58
51617;BME280;37697;52.588;13.394;2023-05-03T20:07:57;102177.30;;;9.67;52.67
51617;BME280;37697;52.588;13.394;2023-05-03T20:13:02;102179.23;;;9.55;52.87
51617;BME280;37697;52.588;13.394;2023-05-03T20:18:08;102183.40;;;9.42;53.61
51617;BME280;37697;52.588;13.394;2023-05-03T20:23:13;102182.31;;;9.32;53.87
51617;BME280;37697;52.588;13.394;2023-05-03T20:28:20;102184.27;;;9.19;54.15
51617;BME280;37697;52.588;13.394;2023-05-03T20:33:25;102185.75;;;9.02;54.62
51617;BME280;37697;52.588;13.394;2023-05-03T20:38:31;102190.59;;;8.84;55.02
51617;BME280;37697;52.588;13.394;2023-05-03T20:43:36;102188.77;;;8.72;55.34
51617;BME280;37697;52.588;13.394;2023-05-03T20:48:42;102189.08;;;8.60;55.76
51617;BME280;37697;52.588;13.394;2023-05-03T20:53:47;102186.96;;;8.49;55.97
51617;BME280;37697;52.588;13.394;2023-05-03T20:58:52;102190.69;;;8.32;56.53
51617;BME280;37697;52.588;13.394;2023-05-03T21:03:58;102187.56;;;8.13;56.73
51617;BME280;37697;52.588;13.394;2023-05-03T21:09:04;102189.19;;;8.05;57.21
51617;BME280;37697;52.588;13.394;2023-05-03T21:14:11;102196.44;;;7.94;57.51
51617;BME280;37697;52.588;13.394;2023-05-03T21:19:18;102190.80;;;7.81;58.06
51617;BME280;37697;52.588;13.394;2023-05-03T21:24:23;102191.52;;;7.72;58.39
51617;BME280;37697;52.588;13.394;2023-05-03T21:29:30;102191.34;;;7.64;58.53
51617;BME280;37697;52.588;13.394;2023-05-03T21:34:36;102192.05;;;7.54;58.92
51617;BME280;37697;52.588;13.394;2023-05-03T21:39:41;102191.30;;;7.43;59.09
51617;BME280;37697;52.588;13.394;2023-05-03T21:44:58;102187.53;;;7.35;59.27
51617;BME280;37697;52.588;13.394;2023-05-03T21:50:04;102191.89;;;7.27;59.55
51617;BME280;37697;52.588;13.394;2023-05-03T21:55:11;102186.52;;;7.16;59.62
51617;BME280;37697;52.588;13.394;2023-05-03T22:00:17;102185.57;;;6.97;59.84
51617;BME280;37697;52.588;13.394;2023-05-03T22:05:25;102183.33;;;6.78;60.40
51617;BME280;37697;52.588;13.394;2023-05-03T22:10:30;102184.92;;;6.62;60.64
51617;BME280;37697;52.588;13.394;2023-05-03T22:15:36;102185.74;;;6.45;61.29
51617;BME280;37697;52.588;13.394;2023-05-03T22:20:41;102186.11;;;6.42;61.47
51617;BME280;37697;52.588;13.394;2023-05-03T22:25:47;102187.41;;;6.34;62.03
51617;BME280;37697;52.588;13.394;2023-05-03T22:30:52;102183.81;;;6.27;62.01
51617;BME280;37697;52.588;13.394;2023-05-03T22:35:58;102186.15;;;6.24;62.24
51617;BME280;37697;52.588;13.394;2023-05-03T22:41:03;102191.10;;;6.18;62.12
51617;BME280;37697;52.588;13.394;2023-05-03T22:46:08;102190.22;;;6.13;62.23
51617;BME280;37697;52.588;13.394;2023-05-03T22:51:14;102193.31;;;6.07;62.32
51617;BME280;37697;52.588;13.394;2023-05-03T22:56:19;102191.45;;;6.01;62.55
51617;BME280;37697;52.588;13.394;2023-05-03T23:01:26;102190.05;;;5.95;62.57
51617;BME280;37697;52.588;13.394;2023-05-03T23:06:32;102191.80;;;5.86;62.75
51617;BME280;37697;52.588;13.394;2023-05-03T23:11:37;102191.55;;;5.72;62.84
51617;BME280;37697;52.588;13.394;2023-05-03T23:16:43;102184.56;;;5.65;63.31
51617;BME280;37697;52.588;13.394;2023-05-03T23:21:48;102183.50;;;5.63;63.27
51617;BME280;37697;52.588;13.394;2023-05-03T23:26:54;102180.52;;;5.58;63.61
51617;BME280;37697;52.588;13.394;2023-05-03T23:32:00;102187.46;;;5.44;63.56
51617;BME280;37697;52.588;13.394;2023-05-03T23:37:06;102183.85;;;5.35;64.00
51617;BME280;37697;52.588;13.394;2023-05-03T23:42:11;102178.98;;;5.26;64.22
51617;BME280;37697;52.588;13.394;2023-05-03T23:47:17;102175.65;;;5.18;64.58
51617;BME280;37697;52.588;13.394;2023-05-03T23:52:22;102173.17;;;5.09;64.74
51617;BME280;37697;52.588;13.394;2023-05-03T23:57:28;102176.96;;;5.00;64.93
